Time;durP1;ratioP1;P1;durP2;ratioP2;P2;SDS_P1;SDS_P2;PMS_P1;PMS_P2;Temp;Humidity;BMP_temperature;BMP_pressure;BME280_temperature;BME280_humidity;BME280_pressure;Samples;Min_cycle;Max_cycle;Signal;HPM_P1;HPM_P2
2022/04/21 00:00:44;;;;;;;8.38;6.65;;;;;;;2.69;100.00;100371.95;1780733;80;20945;-46
2022/04/21 00:03:11;;;;;;;11.25;6.55;;;;;;;2.67;100.00;100372.34;1780817;80;20873;-46
2022/04/21 00:05:39;;;;;;;7.78;6.87;;;;;;;2.63;100.00;100369.72;1780855;80;20913;-47
2022/04/21 00:08:07;;;;;;;9.33;6.28;;;;;;;2.58;100.00;100370.97;1752676;80;21518;-46
2022/04/21 00:10:35;;;;;;;6.67;6.08;;;;;;;2.54;100.00;100366.22;1780708;80;20983;-46
2022/04/21 00:13:03;;;;;;;6.70;6.00;;;;;;;2.52;100.00;100374.29;1780923;80;20944;-47
2022/04/21 00:15:30;;;;;;;7.83;6.28;;;;;;;2.50;100.00;100375.09;1780820;80;20877;-47
2022/04/21 00:17:59;;;;;;;11.05;7.28;;;;;;;2.49;100.00;100372.10;1780926;80;20970;-47
2022/04/21 00:20:25;;;;;;;10.80;6.62;;;;;;;2.51;100.00;100371.70;1780789;80;20932;-47
2022/04/21 00:25:38;;;;;;;9.18;6.08;;;;;;;2.53;100.00;100372.17;1780796;80;21463;-47
2022/04/21 00:28:06;;;;;;;9.35;6.40;;;;;;;2.55;100.00;100373.05;1780847;80;20897;-47
2022/04/21 00:30:32;;;;;;;6.75;6.20;;;;;;;2.54;100.00;100372.61;1777440;80;21647;-47
2022/04/21 00:32:59;;;;;;;7.65;6.87;;;;;;;2.53;100.00;100367.06;1775093;80;20885;-47
2022/04/21 00:35:25;;;;;;;6.90;6.00;;;;;;;2.54;100.00;100366.66;1775076;80;20983;-47
2022/04/21 00:37:57;;;;;;;6.37;5.87;;;;;;;2.53;100.00;100369.62;1775010;80;20948;-47
2022/04/21 00:40:29;;;;;;;8.18;6.87;;;;;;;2.53;100.00;100377.28;1775134;80;21002;-47
2022/04/21 00:42:57;;;;;;;7.62;6.87;;;;;;;2.52;100.00;100369.58;1775154;80;20858;-47
2022/04/21 00:45:26;;;;;;;7.12;6.42;;;;;;;2.52;100.00;100370.86;1775121;80;20885;-47
2022/04/21 00:47:56;;;;;;;8.05;6.17;;;;;;;2.52;100.00;100362.79;1775106;80;21046;-47
2022/04/21 00:50:33;;;;;;;11.40;6.37;;;;;;;2.52;100.00;100367.03;1775008;80;20967;-47
2022/04/21 00:53:01;;;;;;;8.43;6.80;;;;;;;2.48;100.00;100364.00;1775169;80;20854;-47
2022/04/21 00:55:27;;;;;;;7.78;6.97;;;;;;;2.46;100.00;100360.56;1775001;80;21133;-47
2022/04/21 00:57:55;;;;;;;8.30;6.70;;;;;;;2.47;100.00;100364.84;1775029;80;20885;-47
2022/04/21 01:00:22;;;;;;;7.30;5.95;;;;;;;2.45;100.00;100359.72;1774963;80;20984;-47
2022/04/21 01:02:50;;;;;;;7.33;6.33;;;;;;;2.43;100.00;100359.69;1775070;80;20842;-47
2022/04/21 01:05:28;;;;;;;7.37;6.62;;;;;;;2.43;100.00;100366.52;1774957;80;21542;-47
2022/04/21 01:08:00;;;;;;;8.43;7.22;;;;;;;2.41;100.00;100367.75;1775098;80;21162;-47
2022/04/21 01:10:30;;;;;;;7.05;6.37;;;;;;;2.43;100.00;100366.52;1774990;80;21527;-47
2022/04/21 01:12:58;;;;;;;9.48;7.22;;;;;;;2.43;100.00;100363.95;1774978;80;20850;-47
2022/04/21 01:15:27;;;;;;;9.00;6.62;;;;;;;2.43;100.00;100364.80;1753430;80;21474;-47
2022/04/21 01:17:54;;;;;;;7.30;6.60;;;;;;;2.43;100.00;100362.24;1775309;80;20981;-47
2022/04/21 01:20:24;;;;;;;7.85;7.05;;;;;;;2.44;100.00;100363.96;1775129;80;21141;-47
2022/04/21 01:22:51;;;;;;;7.45;6.50;;;;;;;2.47;100.00;100355.89;1774922;80;20972;-46
2022/04/21 01:25:19;;;;;;;7.78;6.97;;;;;;;2.51;100.00;100364.03;1774987;80;20928;-46
2022/04/21 01:27:50;;;;;;;7.62;6.53;;;;;;;2.53;100.00;100364.94;1774936;80;20893;-46
2022/04/21 01:30:16;;;;;;;7.55;6.83;;;;;;;2.55;100.00;100367.09;1774979;80;20999;-46
2022/04/21 01:32:46;;;;;;;8.35;7.20;;;;;;;2.55;100.00;100369.22;1780065;80;20976;-47
2022/04/21 01:35:14;;;;;;;7.15;6.45;;;;;;;2.55;100.00;100366.66;1752469;80;21716;-46
2022/04/21 01:43:12;;;;;;;7.10;5.85;;;;;;;2.62;100.00;100365.45;1781282;80;20838;-47
2022/04/21 01:45:41;;;;;;;7.83;6.22;;;;;;;2.62;100.00;100374.41;1780908;80;20912;-48
2022/04/21 01:48:08;;;;;;;7.72;6.03;;;;;;;2.60;100.00;100374.40;1780863;80;21466;-47
2022/04/21 01:50:37;;;;;;;7.37;6.67;;;;;;;2.62;100.00;100373.99;1780709;80;21391;-47
2022/04/21 01:53:04;;;;;;;7.65;6.53;;;;;;;2.62;100.00;100373.99;1780821;80;21557;-48
2022/04/21 01:55:30;;;;;;;7.20;6.22;;;;;;;2.65;100.00;100371.88;1780877;80;20857;-48
2022/04/21 01:57:57;;;;;;;7.65;5.97;;;;;;;2.65;100.00;100361.66;1780719;80;21313;-47
2022/04/21 02:00:25;;;;;;;8.25;6.85;;;;;;;2.66;100.00;100365.95;1780733;80;20878;-47
2022/04/21 02:02:51;;;;;;;7.05;6.45;;;;;;;2.66;100.00;100365.95;1780588;80;20877;-47
2022/04/21 02:05:18;;;;;;;6.92;6.22;;;;;;;2.65;100.00;100364.21;1780797;80;21032;-47
2022/04/21 02:07:46;;;;;;;7.17;6.58;;;;;;;2.66;100.00;100367.23;1752216;80;20905;-48
2022/04/21 02:10:16;;;;;;;6.72;6.10;;;;;;;2.67;100.00;100368.95;1752738;80;20861;-48
2022/04/21 02:12:45;;;;;;;9.03;6.72;;;;;;;2.67;100.00;100367.67;1780689;80;20924;-47
2022/04/21 02:15:14;;;;;;;8.43;6.28;;;;;;;2.68;100.00;100367.67;1780748;80;20940;-48
2022/04/21 02:17:42;;;;;;;6.75;6.10;;;;;;;2.71;100.00;100362.59;1780916;80;20936;-47
2022/04/21 02:20:10;;;;;;;11.25;6.25;;;;;;;2.74;100.00;100360.52;1781025;80;20940;-48
2022/04/21 02:22:37;;;;;;;8.15;6.33;;;;;;;2.75;100.00;100364.78;1780934;80;21914;-48
2022/04/21 02:25:06;;;;;;;7.40;6.62;;;;;;;2.75;100.00;100366.06;1780783;80;21031;-47
2022/04/21 02:27:36;;;;;;;8.65;6.03;;;;;;;2.75;100.00;100367.34;1753126;80;20861;-47
2022/04/21 02:30:06;;;;;;;7.58;6.00;;;;;;;2.80;100.00;100384.87;1780693;80;20929;-48
2022/04/21 02:32:34;;;;;;;7.65;6.08;;;;;;;2.80;100.00;100384.87;1780803;80;20999;-48
2022/04/21 02:35:01;;;;;;;6.70;6.10;;;;;;;2.80;100.00;100381.03;1780830;80;21224;-47
2022/04/21 02:37:28;;;;;;;6.30;5.80;;;;;;;2.80;100.00;100382.31;1780803;80;20876;-47
2022/04/21 02:39:54;;;;;;;7.08;6.40;;;;;;;2.80;100.00;100384.87;1778140;80;20932;-47
2022/04/21 02:42:21;;;;;;;8.15;6.42;;;;;;;2.79;100.00;100383.59;1780883;80;20972;-47
2022/04/21 02:44:48;;;;;;;6.53;5.67;;;;;;;2.80;100.00;100384.02;1780914;80;20963;-48
2022/04/21 02:47:15;;;;;;;9.75;6.20;;;;;;;2.78;100.00;100383.99;1780860;80;21204;-47
2022/04/21 02:49:46;;;;;;;6.37;5.75;;;;;;;2.77;100.00;100385.23;1780753;80;20916;-48
2022/04/21 02:52:12;;;;;;;7.35;6.00;;;;;;;2.75;100.00;100388.20;1780846;80;20999;-47
2022/04/21 02:57:27;;;;;;;5.90;5.30;;;;;;;2.75;100.00;100399.30;1780974;80;21028;-48
2022/04/21 02:59:57;;;;;;;6.90;5.62;;;;;;;2.73;100.00;100399.27;1780831;80;21958;-48
2022/04/21 03:02:24;;;;;;;6.50;5.90;;;;;;;2.73;100.00;100399.27;1779517;80;20963;-48
2022/04/21 03:04:52;;;;;;;9.28;5.90;;;;;;;2.70;100.00;100403.06;1780836;80;20985;-48
2022/04/21 03:07:22;;;;;;;6.67;6.08;;;;;;;2.70;100.00;100403.06;1780934;80;20936;-48
2022/04/21 03:09:53;;;;;;;7.47;5.78;;;;;;;2.70;100.00;100397.95;1752476;80;20932;-47
2022/04/21 03:12:26;;;;;;;6.12;5.62;;;;;;;2.71;100.00;100402.66;1780868;80;21007;-47
2022/04/21 03:14:53;;;;;;;7.15;6.40;;;;;;;2.66;100.00;100406.42;1780879;80;20916;-47
2022/04/21 03:17:20;;;;;;;7.80;6.35;;;;;;;2.66;100.00;100406.42;1780807;80;20976;-48
2022/04/21 03:19:46;;;;;;;6.12;5.62;;;;;;;2.65;100.00;100408.94;1780909;80;20873;-47
2022/04/21 03:25:03;;;;;;;6.90;6.12;;;;;;;2.67;100.00;100399.19;1781098;80;21157;-47
2022/04/21 03:27:31;;;;;;;7.03;6.28;;;;;;;2.67;100.00;100399.19;1780887;80;20881;-48
2022/04/21 03:30:06;;;;;;;6.30;5.75;;;;;;;2.69;100.00;100399.22;1780809;80;20881;-48
2022/04/21 03:32:36;;;;;;;8.73;6.85;;;;;;;2.72;100.00;100398.83;1780756;80;20905;-47
2022/04/21 03:35:05;;;;;;;6.95;6.33;;;;;;;2.78;100.00;100400.61;1780620;80;21022;-47
2022/04/21 03:37:33;;;;;;;6.33;5.62;;;;;;;2.78;100.00;100400.61;1780907;80;20968;-47
2022/04/21 03:40:00;;;;;;;7.28;6.22;;;;;;;2.82;100.00;100409.19;1780740;80;20884;-48
2022/04/21 03:42:27;;;;;;;7.60;5.33;;;;;;;2.83;100.00;100415.58;1780942;80;20845;-48
2022/04/21 03:44:54;;;;;;;8.58;5.90;;;;;;;2.83;100.00;100414.74;1752427;80;20947;-48
2022/04/21 03:47:21;;;;;;;7.15;5.47;;;;;;;2.85;100.00;100416.89;1780970;80;20932;-47
2022/04/21 03:49:49;;;;;;;7.10;5.97;;;;;;;2.84;100.00;100405.80;1780902;80;21076;-47
2022/04/21 03:52:17;;;;;;;6.95;5.95;;;;;;;2.83;100.00;100408.34;1780914;80;20885;-48
2022/04/21 03:54:44;;;;;;;6.67;6.03;;;;;;;2.81;100.00;100413.43;1752825;80;20928;-48
2022/04/21 03:57:10;;;;;;;6.30;5.67;;;;;;;2.82;100.00;100420.26;1780795;80;20924;-47
2022/04/21 03:59:37;;;;;;;7.92;5.70;;;;;;;2.89;100.00;100412.25;1752402;80;21462;-47
2022/04/21 04:02:05;;;;;;;5.87;5.37;;;;;;;2.89;100.00;100412.25;1780908;80;21751;-48
2022/04/21 04:04:35;;;;;;;8.18;5.40;;;;;;;2.94;100.00;100416.16;1780768;80;21549;-47
2022/04/21 04:12:38;;;;;;;6.00;5.50;;;;;;;3.11;100.00;100426.15;1780842;80;20951;-47
2022/04/21 04:15:06;;;;;;;7.08;5.37;;;;;;;3.19;100.00;100426.24;1780543;80;21007;-47
2022/04/21 04:17:35;;;;;;;7.00;5.33;;;;;;;3.25;100.00;100426.30;1728204;80;21007;-47
2022/04/21 04:20:04;;;;;;;6.90;6.05;;;;;;;3.30;100.00;100432.36;1780871;80;20963;-48
2022/04/21 04:22:40;;;;;;;5.75;5.10;;;;;;;3.38;100.00;100426.45;1780745;80;20892;-48
2022/04/21 04:25:09;;;;;;;5.53;5.00;;;;;;;3.42;100.00;100422.67;1752997;80;21572;-48
2022/04/21 04:27:37;;;;;;;8.00;5.75;;;;;;;3.51;100.00;100424.88;1780877;80;20924;-47
2022/04/21 04:30:06;;;;;;;6.20;5.53;;;;;;;3.57;100.00;100433.89;1780708;80;20956;-47
2022/04/21 04:32:35;;;;;;;6.92;5.03;;;;;;;3.62;100.00;100429.67;1781768;80;20983;-47
2022/04/21 04:35:04;;;;;;;5.03;4.55;;;;;;;3.68;100.00;100429.76;1783433;80;21545;-47
2022/04/21 04:37:31;;;;;;;6.05;4.47;;;;;;;3.73;100.00;100434.49;1783460;80;20916;-47
2022/04/21 04:39:59;;;;;;;5.55;4.72;;;;;;;3.85;100.00;100436.72;1754965;80;21784;-47
2022/04/21 04:42:25;;;;;;;6.35;4.83;;;;;;;3.99;100.00;100450.52;1783575;80;20928;-47
2022/04/21 04:46:34;;;;;;;5.65;4.60;;;;;;;3.99;100.00;100450.52;1783625;80;20834;-47
2022/04/21 04:47:21;;;;;;;7.58;5.37;;;;;;;4.07;100.00;100448.44;1779255;80;20952;-47
2022/04/21 04:49:47;;;;;;;5.00;4.60;;;;;;;4.13;100.00;100442.94;1783554;80;21077;-47
2022/04/21 04:52:14;;;;;;;4.70;4.40;;;;;;;4.19;100.00;100443.42;1783589;80;21245;-47
2022/04/21 04:54:41;;;;;;;5.20;4.78;;;;;;;4.25;100.00;100447.30;1783375;80;20932;-47
2022/04/21 04:57:07;;;;;;;5.00;4.60;;;;;;;4.28;100.00;100446.45;1783672;80;20912;-47
2022/04/21 04:59:34;;;;;;;4.90;4.50;;;;;;;4.35;100.00;100444.80;1783490;80;20952;-47
2022/04/21 05:02:02;;;;;;;8.83;4.87;;;;;;;4.45;100.00;100450.44;1783656;80;21003;-47
2022/04/21 05:04:31;;;;;;;5.03;4.60;;;;;;;4.56;100.00;100446.67;1783272;80;21377;-47
2022/04/21 05:06:58;;;;;;;5.17;4.70;;;;;;;4.66;100.00;100443.30;1783434;80;20999;-47
2022/04/21 05:09:27;;;;;;;5.05;4.65;;;;;;;4.78;100.00;100444.20;1783633;80;20901;-47
2022/04/21 05:11:55;;;;;;;5.20;4.72;;;;;;;4.84;100.00;100450.22;1783543;80;20834;-47
2022/04/21 05:14:25;;;;;;;4.80;4.40;;;;;;;4.94;100.00;100451.13;1783551;80;20944;-47
2022/04/21 05:16:52;;;;;;;5.17;4.67;;;;;;;5.03;100.00;100446.47;1783542;80;21414;-48
2022/04/21 05:19:20;;;;;;;5.45;4.62;;;;;;;5.14;100.00;100446.52;1783461;80;20939;-47
2022/04/21 05:21:49;;;;;;;4.25;3.95;;;;;;;5.29;100.00;100450.41;1783469;80;21454;-47
2022/04/21 05:24:17;;;;;;;5.03;4.40;;;;;;;5.45;100.00;100457.75;1783497;80;21003;-48
2022/04/21 05:26:48;;;;;;;4.03;3.72;;;;;;;5.59;99.96;100463.33;1783495;80;20994;-48
2022/04/21 05:32:03;;;;;;;5.70;4.60;;;;;;;5.68;98.44;100470.20;1783000;80;21370;-49
2022/04/21 05:34:31;;;;;;;4.97;4.58;;;;;;;5.65;97.13;100463.78;1774992;80;20960;-49
2022/04/21 05:36:59;;;;;;;4.22;3.83;;;;;;;5.56;96.01;100464.20;1775149;80;20928;-48
2022/04/21 05:39:30;;;;;;;5.03;4.53;;;;;;;5.56;96.16;100468.05;1775201;80;21035;-48
2022/04/21 05:41:59;;;;;;;7.58;4.33;;;;;;;5.61;95.93;100470.61;1774930;80;21971;-48
2022/04/21 05:44:30;;;;;;;4.25;3.95;;;;;;;5.68;95.99;100461.21;1775102;80;20912;-48
2022/04/21 05:46:59;;;;;;;4.42;4.03;;;;;;;5.76;95.53;100460.79;1775098;80;20948;-49
2022/04/21 05:49:28;;;;;;;4.10;3.83;;;;;;;5.85;95.58;100463.80;1775094;80;20948;-48
2022/04/21 05:51:55;;;;;;;3.67;3.47;;;;;;;5.91;94.61;100461.23;1753191;80;20881;-48
2022/04/21 05:54:23;;;;;;;3.95;3.72;;;;;;;6.00;94.25;100461.67;1775089;80;21049;-48
2022/04/21 05:56:52;;;;;;;6.37;4.35;;;;;;;6.14;94.30;100455.28;1753867;80;20964;-48
2022/04/21 05:59:18;;;;;;;4.40;3.98;;;;;;;6.33;93.67;100453.14;1747907;80;20964;-48
2022/04/21 06:01:45;;;;;;;3.95;3.65;;;;;;;6.58;93.00;100447.12;1775061;80;20933;-48
2022/04/21 06:04:12;;;;;;;6.53;4.45;;;;;;;6.78;91.58;100459.92;1775139;80;20980;-49
2022/04/21 06:06:40;;;;;;;4.75;4.28;;;;;;;6.88;89.96;100471.89;1775311;80;20980;-48
2022/04/21 06:09:07;;;;;;;6.00;4.65;;;;;;;6.84;88.40;100466.33;1774880;80;21482;-48
2022/04/21 06:11:35;;;;;;;4.60;4.30;;;;;;;6.73;87.51;100470.66;1775177;80;20936;-48
2022/04/21 06:14:02;;;;;;;5.78;4.35;;;;;;;6.67;88.03;100465.50;1775129;80;21023;-48
2022/04/21 06:16:28;;;;;;;4.72;4.22;;;;;;;6.64;88.53;100462.95;1775222;80;21348;-49
2022/04/21 06:18:57;;;;;;;6.97;4.45;;;;;;;6.74;88.74;100464.21;1775189;80;20972;-49
2022/04/21 06:21:25;;;;;;;3.87;3.55;;;;;;;6.93;87.30;100469.73;1775137;80;21462;-49
2022/04/21 06:23:51;;;;;;;4.28;3.98;;;;;;;7.13;87.38;100471.81;1775238;80;20979;-49
2022/04/21 06:26:19;;;;;;;4.70;4.25;;;;;;;7.27;85.46;100474.77;1775451;80;21468;-49
2022/04/21 06:28:47;;;;;;;4.78;4.37;;;;;;;7.27;85.01;100474.77;1775039;80;20984;-48
2022/04/21 06:31:13;;;;;;;5.08;4.60;;;;;;;7.24;85.28;100469.19;1775160;80;21215;-48
2022/04/21 06:33:40;;;;;;;6.47;4.42;;;;;;;7.17;85.25;100472.22;1778495;80;21050;-48
2022/04/21 06:36:07;;;;;;;5.75;4.95;;;;;;;7.23;86.12;100474.36;1781011;80;20933;-48
2022/04/21 06:38:35;;;;;;;5.12;4.50;;;;;;;7.33;85.95;100469.59;1781008;80;20975;-48
2022/04/21 06:41:02;;;;;;;5.08;4.45;;;;;;;7.36;85.86;100470.86;1780994;80;21027;-48
2022/04/21 06:49:02;;;;;;;5.42;3.90;;;;;;;7.73;84.87;100471.95;1780936;80;20924;-49
2022/04/21 06:51:30;;;;;;;3.98;3.65;;;;;;;7.91;83.00;100474.83;1780711;80;21427;-47
2022/04/21 06:53:57;;;;;;;5.45;4.72;;;;;;;7.90;82.08;100482.56;1780712;80;20952;-48
2022/04/21 06:56:25;;;;;;;4.92;4.00;;;;;;;7.83;81.28;100482.19;1780982;80;21238;-47
2022/04/21 06:58:51;;;;;;;5.20;4.70;;;;;;;7.72;81.25;100482.25;1780849;80;20869;-47
2022/04/21 07:01:19;;;;;;;5.10;4.53;;;;;;;7.65;80.35;100474.15;1780847;80;20936;-47
2022/04/21 07:03:47;;;;;;;5.33;4.35;;;;;;;7.68;81.70;100475.41;1780898;80;20924;-49
2022/04/21 07:06:14;;;;;;;4.67;4.28;;;;;;;7.89;81.89;100478.27;1780977;80;20971;-49
2022/04/21 07:08:41;;;;;;;7.00;4.10;;;;;;;8.11;81.25;100474.25;1780933;80;21090;-49
2022/04/21 07:11:08;;;;;;;5.95;5.33;;;;;;;8.30;79.02;100470.66;1780877;80;20999;-48
2022/04/21 07:13:36;;;;;;;7.35;5.50;;;;;;;8.38;78.85;100480.05;1781089;80;20928;-48
2022/04/21 07:16:04;;;;;;;5.75;5.20;;;;;;;8.38;78.19;100476.17;1780850;80;20963;-49
2022/04/21 07:18:31;;;;;;;5.90;5.40;;;;;;;8.37;77.73;100474.47;1780930;80;21347;-49
2022/04/21 07:21:03;;;;;;;4.97;4.55;;;;;;;8.33;77.38;100469.34;1781191;80;20964;-46
2022/04/21 07:23:31;;;;;;;4.78;4.37;;;;;;;8.24;76.20;100472.42;1780700;80;21537;-46
2022/04/21 07:25:59;;;;;;;7.22;5.40;;;;;;;8.17;75.71;100467.33;1780940;80;20893;-48
2022/04/21 07:28:25;;;;;;;5.60;4.95;;;;;;;8.19;76.48;100472.45;1780936;80;21015;-47
2022/04/21 07:30:52;;;;;;;6.17;5.17;;;;;;;8.28;75.25;100478.84;1781155;80;20932;-48
2022/04/21 07:33:20;;;;;;;4.42;4.12;;;;;;;8.48;76.67;100479.95;1780798;80;21114;-48
2022/04/21 07:35:46;;;;;;;4.78;4.35;;;;;;;8.77;76.17;100472.83;1780743;80;20873;-47
2022/04/21 07:38:13;;;;;;;4.78;4.10;;;;;;;9.00;75.06;100479.47;1780830;80;20877;-48
2022/04/21 07:40:41;;;;;;;5.45;4.50;;;;;;;9.04;74.40;100478.55;1780997;80;20842;-48
2022/04/21 07:43:10;;;;;;;4.60;4.25;;;;;;;9.08;73.87;100475.48;1780886;80;20909;-48
2022/04/21 07:45:41;;;;;;;5.15;4.75;;;;;;;9.12;73.46;100483.64;1780713;80;21110;-47
2022/04/21 07:48:07;;;;;;;5.15;4.75;;;;;;;9.11;73.14;100484.05;1780380;80;20936;-48
2022/04/21 07:50:35;;;;;;;4.75;4.35;;;;;;;9.15;73.46;100488.31;1778048;80;20966;-48
2022/04/21 07:53:15;;;;;;;5.03;4.62;;;;;;;8.94;71.53;100485.55;1780884;80;21019;-47
2022/04/21 07:55:50;;;;;;;8.03;5.25;;;;;;;8.67;72.57;100477.23;1755745;80;21068;-47
2022/04/21 07:58:18;;;;;;;4.70;4.30;;;;;;;8.40;74.94;100484.75;1780865;80;20960;-48
2022/04/21 08:00:44;;;;;;;5.37;4.35;;;;;;;8.19;75.63;100483.64;1780715;80;21485;-47
2022/04/21 08:03:15;;;;;;;7.37;4.92;;;;;;;8.14;76.54;100487.11;1780746;80;20924;-47
2022/04/21 08:05:41;;;;;;;5.37;4.87;;;;;;;8.13;77.19;100485.41;1780921;80;20928;-48
2022/04/21 08:08:11;;;;;;;6.62;4.60;;;;;;;8.20;78.24;100484.48;1780769;80;20937;-48
2022/04/21 08:10:37;;;;;;;5.12;4.72;;;;;;;8.31;78.15;100483.97;1780853;80;21265;-47
2022/04/21 08:13:03;;;;;;;7.65;5.35;;;;;;;8.34;77.07;100494.71;1780621;80;20975;-48
2022/04/21 08:15:33;;;;;;;6.97;5.10;;;;;;;8.32;75.78;100488.69;1778189;80;20932;-49
2022/04/21 08:18:04;;;;;;;5.30;4.70;;;;;;;8.28;75.19;100493.03;1780541;80;20936;-48
2022/04/21 08:20:33;;;;;;;5.85;5.08;;;;;;;8.30;76.34;100493.00;1780461;80;20889;-48
2022/04/21 08:22:59;;;;;;;6.70;5.90;;;;;;;8.34;76.11;100492.97;1780603;80;22090;-48
2022/04/21 08:33:43;;;;;;;6.55;5.92;;;;;;;8.03;76.98;100495.80;1781867;80;20987;-50
2022/04/21 08:36:11;;;;;;;6.55;5.12;;;;;;;8.00;76.16;100491.96;1783550;80;20937;-49
2022/04/21 08:38:39;;;;;;;6.42;5.83;;;;;;;7.96;75.55;100490.27;1783629;80;20933;-48
2022/04/21 08:41:07;;;;;;;7.22;5.45;;;;;;;7.93;74.76;100485.56;1783603;80;20958;-48
2022/04/21 08:43:35;;;;;;;7.08;6.37;;;;;;;7.92;74.05;100487.27;1783464;80;20983;-49
2022/04/21 08:46:03;;;;;;;7.72;6.65;;;;;;;7.93;74.04;100492.00;1783499;80;20920;-49
2022/04/21 08:48:30;;;;;;;10.18;6.37;;;;;;;7.94;74.56;100491.98;1783605;80;21123;-48
2022/04/21 08:50:56;;;;;;;6.37;5.75;;;;;;;7.97;74.59;100488.12;1783559;80;21015;-48
2022/04/21 08:53:24;;;;;;;7.70;5.90;;;;;;;8.01;75.19;100494.09;1783579;80;20940;-49
2022/04/21 08:55:52;;;;;;;7.10;5.60;;;;;;;8.05;75.29;100495.35;1783513;80;21395;-48
2022/04/21 08:58:20;;;;;;;6.37;5.53;;;;;;;8.16;75.00;100495.70;1783711;80;20889;-48
2022/04/21 09:00:47;;;;;;;6.35;5.75;;;;;;;8.49;76.68;100489.84;1783467;80;21161;-48
2022/04/21 09:03:14;;;;;;;7.92;6.10;;;;;;;8.97;74.71;100482.05;1783518;80;20927;-49
2022/04/21 09:05:44;;;;;;;6.28;5.60;;;;;;;9.48;73.88;100485.32;1783303;80;20845;-49
2022/04/21 09:08:23;;;;;;;6.83;6.12;;;;;;;10.21;72.38;100473.47;1783589;80;20925;-49
2022/04/21 09:11:04;;;;;;;9.38;6.22;;;;;;;11.03;67.16;100480.67;1783637;80;20948;-49
2022/04/21 09:13:36;;;;;;;7.62;6.03;;;;;;;11.41;65.15;100479.00;1783639;80;21415;-49
2022/04/21 09:16:05;;;;;;;9.05;6.40;;;;;;;11.69;63.11;100474.50;1783303;80;20975;-49
2022/04/21 09:18:44;;;;;;;9.50;6.17;;;;;;;11.83;62.72;100470.30;1783312;80;20935;-48
2022/04/21 09:21:17;;;;;;;7.53;6.58;;;;;;;11.80;62.73;100474.26;1783781;80;20913;-48
2022/04/21 09:23:47;;;;;;;9.83;6.40;;;;;;;11.65;61.69;100466.39;1783486;80;20975;-49
2022/04/21 09:26:20;;;;;;;6.90;6.20;;;;;;;11.42;61.29;100466.45;1783606;80;21255;-48
2022/04/21 09:28:55;;;;;;;6.05;5.22;;;;;;;11.36;62.59;100458.82;1783457;80;20933;-49
2022/04/21 09:31:21;;;;;;;5.80;5.30;;;;;;;11.32;63.07;100470.98;1783536;80;20901;-49
2022/04/21 09:33:49;;;;;;;6.17;5.60;;;;;;;11.18;60.78;100460.91;1730928;80;21474;-49
2022/04/21 09:36:18;;;;;;;12.53;7.42;;;;;;;10.84;62.33;100470.66;1785458;80;21406;-48
2022/04/21 09:38:59;;;;;;;20.43;7.35;;;;;;;10.29;71.70;100487.57;1780581;80;21411;-49
2022/04/21 09:41:30;;;;;;;8.10;7.12;;;;;;;9.60;73.27;100483.88;1785288;80;20931;-49
2022/04/21 09:49:52;;;;;;;6.95;6.25;;;;;;;8.98;82.44;100492.84;1798403;79;22582;-47
2022/04/21 09:52:28;;;;;;;8.18;6.67;;;;;;;8.98;80.08;100500.58;1739322;81;20888;-47
2022/04/21 09:54:55;;;;;;;7.10;6.30;;;;;;;8.89;77.79;100504.95;1758222;81;21217;-48
2022/04/21 09:57:31;;;;;;;7.22;5.22;;;;;;;8.74;80.25;100518.03;1758056;81;20976;-47
2022/04/21 09:59:59;;;;;;;4.72;4.33;;;;;;;8.57;81.01;100522.03;1758023;81;20935;-48
2022/04/21 10:02:29;;;;;;;4.40;4.10;;;;;;;8.26;79.98;100536.45;1758235;81;21474;-48
2022/04/21 10:04:58;;;;;;;4.20;3.80;;;;;;;7.95;81.38;100533.64;1758151;81;20992;-48
2022/04/21 10:07:24;;;;;;;4.60;3.40;;;;;;;7.58;81.99;100544.16;1757918;81;21265;-48
2022/04/21 10:09:51;;;;;;;3.62;2.85;;;;;;;7.26;83.34;100547.73;1758045;81;20857;-49
2022/04/21 10:12:18;;;;;;;3.77;3.47;;;;;;;6.96;84.82;100557.25;1752763;81;20928;-49
2022/04/21 10:14:45;;;;;;;4.37;3.52;;;;;;;6.72;86.93;100562.86;1749803;82;20869;-49
2022/04/21 10:17:14;;;;;;;5.85;3.42;;;;;;;6.51;89.05;100562.41;1749814;81;20933;-49
2022/04/21 10:19:42;;;;;;;3.10;2.77;;;;;;;6.45;90.41;100563.29;1749874;82;20876;-49
2022/04/21 10:22:12;;;;;;;6.92;2.45;;;;;;;6.56;91.96;100553.84;1749767;81;21023;-48
2022/04/21 10:24:40;;;;;;;2.87;2.60;;;;;;;6.75;92.85;100553.40;1749670;81;20976;-49
2022/04/21 10:27:43;;;;;;;3.05;2.85;;;;;;;7.03;94.34;100540.92;1749790;82;20896;-49
2022/04/21 10:30:22;;;;;;;3.20;3.00;;;;;;;7.27;93.96;100550.73;1749828;82;20972;-49
2022/04/21 10:32:56;;;;;;;2.50;2.40;;;;;;;7.57;91.50;100541.16;1749660;81;21151;-48
2022/04/21 10:35:38;;;;;;;5.62;2.67;;;;;;;7.84;92.09;100541.47;1716997;82;20921;-49
2022/04/21 10:38:17;;;;;;;3.10;2.92;;;;;;;8.25;92.18;100540.77;1749609;81;20952;-49
2022/04/21 10:41:06;;;;;;;3.67;3.27;;;;;;;8.62;90.58;100536.62;1749740;81;20932;-48
2022/04/21 10:43:50;;;;;;;3.55;3.25;;;;;;;8.84;89.78;100534.25;1749730;82;20944;-48
2022/04/21 10:46:21;;;;;;;3.47;3.27;;;;;;;8.93;85.68;100526.86;1741030;82;20849;-48
2022/04/21 10:48:48;;;;;;;3.40;3.20;;;;;;;9.00;83.73;100525.49;1743803;81;20877;-48
2022/04/21 10:57:15;;;;;;;5.60;3.87;;;;;;;9.41;79.97;100521.16;1736823;81;20894;-48
2022/04/21 10:59:52;;;;;;;7.15;3.52;;;;;;;9.61;77.09;100522.19;1736707;82;21255;-49
2022/04/21 11:02:19;;;;;;;3.80;3.15;;;;;;;9.78;74.86;100518.08;1727932;82;20881;-48
2022/04/21 11:04:47;;;;;;;4.12;3.17;;;;;;;10.13;76.07;100511.55;1736036;82;21519;-48
2022/04/21 11:07:15;;;;;;;3.72;3.42;;;;;;;10.45;72.64;100511.91;1690812;82;20992;-48
2022/04/21 11:09:48;;;;;;;3.65;3.33;;;;;;;10.46;72.50;100516.20;1736005;82;20846;-48
2022/04/21 11:12:19;;;;;;;4.92;3.00;;;;;;;10.38;72.71;100518.04;1735995;82;21455;-48
2022/04/21 11:14:47;;;;;;;6.45;2.95;;;;;;;10.43;71.19;100514.97;1734810;82;21415;-49
2022/04/21 11:17:15;;;;;;;3.10;2.90;;;;;;;10.74;69.51;100499.75;1736075;82;21462;-49
2022/04/21 11:19:52;;;;;;;3.35;3.05;;;;;;;10.94;66.75;100517.95;1715610;82;20933;-49
2022/04/21 11:22:40;;;;;;;3.37;3.17;;;;;;;10.91;63.04;100508.50;1734705;82;20925;-49
2022/04/21 11:25:08;;;;;;;3.60;3.30;;;;;;;10.96;66.92;100512.73;1736022;82;20925;-48
2022/04/21 11:27:43;;;;;;;2.90;2.75;;;;;;;10.90;64.99;100519.73;1736002;81;21574;-48
2022/04/21 11:30:14;;;;;;;3.27;3.12;;;;;;;10.57;64.76;100525.95;1736092;82;20980;-47
2022/04/21 11:32:50;;;;;;;4.08;3.02;;;;;;;10.42;65.93;100521.02;1736017;82;21538;-48
2022/04/21 11:35:17;;;;;;;3.40;3.20;;;;;;;10.51;65.84;100522.61;1736260;82;21091;-47
2022/04/21 11:37:55;;;;;;;3.87;3.33;;;;;;;10.72;64.19;100525.25;1735909;82;20981;-48
2022/04/21 11:40:35;;;;;;;3.67;3.47;;;;;;;11.02;63.96;100519.11;1735864;82;21000;-48
2022/04/21 11:43:13;;;;;;;3.70;3.47;;;;;;;11.16;64.84;100517.09;1736234;82;22148;-48
2022/04/21 11:45:44;;;;;;;3.85;3.40;;;;;;;11.22;62.96;100522.59;1736031;82;20917;-48
2022/04/21 11:48:13;;;;;;;3.52;3.33;;;;;;;11.01;62.80;100520.00;1735831;81;20949;-49
2022/04/21 11:50:46;;;;;;;3.02;2.62;;;;;;;10.93;60.85;100518.84;1735990;82;21086;-48
2022/04/21 11:53:15;;;;;;;2.98;2.77;;;;;;;10.99;61.68;100521.30;1735783;81;21019;-49
2022/04/21 11:58:35;;;;;;;3.20;3.00;;;;;;;11.63;61.54;100523.48;1871234;76;22730;-48
2022/04/21 12:06:51;;;;;;;2.72;2.60;;;;;;;12.27;59.99;100517.30;1827404;78;20903;-48
2022/04/21 12:09:20;;;;;;;2.98;2.77;;;;;;;11.99;59.76;100526.55;1827400;78;21398;-48
2022/04/21 12:11:53;;;;;;;2.90;2.70;;;;;;;11.89;61.29;100527.66;1823347;78;20876;-48
2022/04/21 12:14:20;;;;;;;4.78;2.72;;;;;;;11.78;61.48;100526.18;1818274;78;21537;-48
2022/04/21 12:16:53;;;;;;;3.72;2.15;;;;;;;11.61;61.97;100530.88;1818187;78;20920;-48
2022/04/21 12:19:32;;;;;;;2.80;2.60;;;;;;;11.37;62.07;100536.98;1818114;78;20920;-49
2022/04/21 12:22:07;;;;;;;3.15;2.83;;;;;;;11.30;63.96;100515.97;1818106;79;20916;-49
2022/04/21 12:24:45;;;;;;;2.60;2.50;;;;;;;11.55;64.42;100520.18;1818174;79;20999;-48
2022/04/21 12:27:22;;;;;;;2.35;2.25;;;;;;;11.85;61.92;100526.03;1818091;78;21446;-49
2022/04/21 12:30:01;;;;;;;2.45;2.25;;;;;;;11.90;60.43;100521.59;1817946;78;20904;-48
2022/04/21 12:32:30;;;;;;;2.22;2.12;;;;;;;12.01;60.29;100526.56;1818125;78;20861;-48
2022/04/21 12:35:01;;;;;;;2.25;2.05;;;;;;;12.20;59.16;100521.35;1818257;78;20903;-48